Terminal Aerodrome Forecast
Issued by NWS

Home | Current Version | Previous Version | Graphics & Text | Print | Product List | Glossary On
Versions: 1 2 3 4 5 6 7 8 9 10 11 12 13 14 15 16 17
399
FTUS43 KABR 170739 AAA
TAFPIR
TAF AMD
KPIR 170739Z 1708/1806 32015KT P6SM BKN200
     FM170900 34008KT P6SM BKN250
     FM180100 35008KT P6SM -RA OVC050
     FM180500 30007KT P6SM -RASN BKN070=

USA.gov is the U.S. government's official web portal to all federal, state and local government web resources and services.